Time;durP1;ratioP1;P1;durP2;ratioP2;P2;SDS_P1;SDS_P2;PMS_P1;PMS_P2;Temp;Humidity;BMP_temperature;BMP_pressure;BME280_temperature;BME280_humidity;BME280_pressure;Samples;Min_cycle;Max_cycle;Signal;HPM_P1;HPM_P2
2021/08/06 00:01:25;;;;;;;1.25;0.70;;;16.50;99.90;;;;;;5037834;28;20017;-87
2021/08/06 00:03:50;;;;;;;2.85;0.70;;;16.70;99.90;;;;;;5037716;28;20029;-87
2021/08/06 00:06:16;;;;;;;2.25;0.80;;;16.70;99.90;;;;;;5038068;28;20033;-87
2021/08/06 00:08:42;;;;;;;1.83;0.70;;;16.70;99.90;;;;;;5037557;28;20025;-87
2021/08/06 00:11:08;;;;;;;0.80;0.50;;;16.70;99.90;;;;;;5037613;28;20031;-87
2021/08/06 00:13:34;;;;;;;0.85;0.60;;;16.50;99.90;;;;;;5037463;28;20021;-87
2021/08/06 00:16:00;;;;;;;0.95;0.75;;;16.50;99.90;;;;;;5037533;28;20025;-87
2021/08/06 00:18:26;;;;;;;1.65;0.65;;;16.40;99.90;;;;;;5037441;28;20082;-86
2021/08/06 00:20:54;;;;;;;0.90;0.60;;;16.40;99.90;;;;;;5055263;28;20022;-87
2021/08/06 00:23:21;;;;;;;2.17;0.70;;;16.50;99.90;;;;;;5037373;28;20028;-88
2021/08/06 00:25:47;;;;;;;1.85;0.60;;;16.50;99.90;;;;;;5037389;28;20048;-87
2021/08/06 00:28:13;;;;;;;2.75;0.70;;;16.40;99.90;;;;;;5055181;28;20106;-86
2021/08/06 00:30:39;;;;;;;0.90;0.70;;;16.50;99.90;;;;;;5055098;28;20040;-87
2021/08/06 00:33:05;;;;;;;1.85;0.90;;;16.50;99.90;;;;;;5037136;28;20029;-87
2021/08/06 00:35:30;;;;;;;3.33;0.70;;;16.50;99.90;;;;;;5037100;28;20021;-88
2021/08/06 00:37:57;;;;;;;1.00;0.70;;;16.60;99.90;;;;;;5054902;28;20365;-87
2021/08/06 00:40:23;;;;;;;0.85;0.60;;;16.50;99.90;;;;;;5037100;28;20037;-87
2021/08/06 00:42:50;;;;;;;2.75;0.73;;;16.50;99.90;;;;;;5037047;28;20021;-87
2021/08/06 00:45:16;;;;;;;1.80;0.70;;;16.50;99.90;;;;;;5037093;28;20031;-87
2021/08/06 00:47:43;;;;;;;4.85;1.08;;;16.40;99.90;;;;;;5055511;28;20419;-87
2021/08/06 00:50:11;;;;;;;1.00;0.70;;;16.40;99.90;;;;;;5039907;28;20028;-87
2021/08/06 00:52:37;;;;;;;2.85;0.70;;;16.30;99.90;;;;;;5041174;28;20549;-87
2021/08/06 00:55:06;;;;;;;2.90;0.68;;;16.40;99.90;;;;;;5037814;28;20052;-87
2021/08/06 00:57:33;;;;;;;3.65;0.80;;;16.50;99.90;;;;;;5037055;28;20070;-87
2021/08/06 00:59:59;;;;;;;1.80;0.68;;;16.70;99.90;;;;;;5036998;28;20421;-87
2021/08/06 01:02:50;;;;;;;5.95;0.80;;;16.70;99.90;;;;;;5036754;28;20102;-87
2021/08/06 01:05:19;;;;;;;1.15;0.80;;;16.40;99.90;;;;;;5006754;28;20501;-87
2021/08/06 01:08:02;;;;;;;3.13;0.60;;;16.50;99.90;;;;;;5036607;28;20048;-87
2021/08/06 01:10:35;;;;;;;3.97;0.80;;;16.40;99.90;;;;;;5036599;28;20028;-87
2021/08/06 01:13:06;;;;;;;2.90;0.80;;;16.40;99.90;;;;;;5036539;28;20036;-87
2021/08/06 01:15:33;;;;;;;0.90;0.60;;;16.40;99.90;;;;;;5036542;28;20100;-87
2021/08/06 01:18:02;;;;;;;4.50;0.60;;;16.40;99.90;;;;;;5054249;28;20023;-87
2021/08/06 01:20:42;;;;;;;1.50;0.70;;;16.40;99.90;;;;;;5036428;28;20404;-87
2021/08/06 01:23:14;;;;;;;1.77;0.82;;;16.40;99.90;;;;;;5036546;28;20027;-87
2021/08/06 01:25:49;;;;;;;5.40;0.70;;;16.20;99.90;;;;;;5036324;28;20025;-87
2021/08/06 01:28:18;;;;;;;0.93;0.50;;;16.10;99.90;;;;;;5036218;28;20139;-87
2021/08/06 01:30:45;;;;;;;3.00;1.25;;;16.10;99.90;;;;;;5036177;28;20025;-87
2021/08/06 01:33:12;;;;;;;1.05;0.57;;;16.10;99.90;;;;;;5036021;28;20031;-87
2021/08/06 01:35:38;;;;;;;2.08;0.98;;;16.10;99.90;;;;;;5036345;28;20035;-87
2021/08/06 01:38:03;;;;;;;1.20;0.60;;;16.10;99.90;;;;;;5036270;28;20112;-87
2021/08/06 01:40:59;;;;;;;3.35;0.70;;;16.20;99.90;;;;;;5036275;28;20037;-87
2021/08/06 01:43:48;;;;;;;1.45;0.60;;;16.10;99.90;;;;;;5000240;28;20025;-87
2021/08/06 01:46:24;;;;;;;4.78;0.90;;;16.30;99.90;;;;;;5054186;28;20087;-87
2021/08/06 01:48:56;;;;;;;1.20;0.85;;;16.60;99.90;;;;;;5054490;28;20025;-87
2021/08/06 01:51:23;;;;;;;1.38;0.73;;;16.60;99.90;;;;;;5054377;28;20056;-87
2021/08/06 01:53:52;;;;;;;0.93;0.65;;;16.60;99.90;;;;;;5036285;28;20400;-87
2021/08/06 01:56:19;;;;;;;1.08;0.98;;;16.60;99.90;;;;;;5036345;28;20396;-87
2021/08/06 01:58:51;;;;;;;4.78;0.85;;;16.50;99.90;;;;;;5036363;28;20048;-87
2021/08/06 02:01:17;;;;;;;3.72;1.00;;;16.40;99.90;;;;;;5036529;28;20021;-87
2021/08/06 02:03:43;;;;;;;2.13;0.80;;;16.60;99.90;;;;;;5036430;28;20049;-87
2021/08/06 02:06:09;;;;;;;0.60;0.50;;;16.40;99.90;;;;;;5054298;28;20067;-87
2021/08/06 02:08:36;;;;;;;3.17;0.73;;;16.50;99.90;;;;;;5036195;28;20029;-87
2021/08/06 02:11:03;;;;;;;5.25;0.90;;;16.40;99.90;;;;;;5036186;28;20029;-87
2021/08/06 02:13:29;;;;;;;5.25;0.80;;;16.50;99.90;;;;;;5054064;28;20025;-88
2021/08/06 02:15:56;;;;;;;1.90;0.77;;;16.50;99.90;;;;;;5036181;28;20111;-87
2021/08/06 02:18:23;;;;;;;4.32;0.90;;;16.60;99.90;;;;;;5036487;28;20032;-88
2021/08/06 02:20:52;;;;;;;2.10;0.90;;;16.60;99.90;;;;;;5053193;28;20025;-87
2021/08/06 02:23:18;;;;;;;4.15;0.82;;;16.60;99.90;;;;;;5036025;28;20025;-87
2021/08/06 02:25:45;;;;;;;2.97;0.70;;;16.50;99.90;;;;;;5053215;28;20048;-87
2021/08/06 02:28:12;;;;;;;2.65;0.75;;;16.40;99.90;;;;;;5035422;28;20029;-88
2021/08/06 02:30:39;;;;;;;0.90;0.70;;;16.40;99.90;;;;;;5035270;28;20495;-87
2021/08/06 02:33:06;;;;;;;2.10;0.82;;;16.40;99.90;;;;;;5053082;28;20032;-87
2021/08/06 02:35:31;;;;;;;2.55;0.75;;;16.30;99.90;;;;;;5035256;28;20025;-87
2021/08/06 02:37:57;;;;;;;2.67;0.90;;;16.40;99.90;;;;;;5035117;28;20458;-87
2021/08/06 02:40:23;;;;;;;0.93;0.50;;;16.50;99.90;;;;;;5037792;28;20045;-87
2021/08/06 02:42:50;;;;;;;0.70;0.65;;;16.50;99.90;;;;;;5015429;28;20025;-87
2021/08/06 02:45:16;;;;;;;2.17;0.85;;;16.70;99.90;;;;;;5015462;28;20557;-87
2021/08/06 02:47:43;;;;;;;1.23;0.60;;;16.70;99.90;;;;;;5033304;28;20060;-87
2021/08/06 02:50:09;;;;;;;2.22;0.98;;;16.60;99.90;;;;;;5015327;28;20037;-87
2021/08/06 02:52:35;;;;;;;2.90;0.77;;;16.60;99.90;;;;;;5015183;28;20030;-87
2021/08/06 02:55:01;;;;;;;4.57;0.90;;;16.50;99.90;;;;;;5032988;28;20465;-87
2021/08/06 02:57:27;;;;;;;1.02;0.70;;;16.50;99.90;;;;;;5033026;28;20030;-87
2021/08/06 02:59:52;;;;;;;1.08;0.70;;;16.50;99.90;;;;;;5015369;28;20489;-87
2021/08/06 03:02:18;;;;;;;2.13;0.70;;;16.60;99.90;;;;;;5015805;28;20108;-87
2021/08/06 03:04:44;;;;;;;3.60;0.93;;;16.60;99.90;;;;;;5018365;28;20393;-87
2021/08/06 03:07:10;;;;;;;3.17;0.80;;;16.30;99.90;;;;;;5016840;28;20049;-87
2021/08/06 03:09:35;;;;;;;4.10;0.85;;;16.30;99.90;;;;;;5015526;28;20079;-87
2021/08/06 03:12:01;;;;;;;1.83;0.70;;;16.30;99.90;;;;;;5033201;28;20025;-87
2021/08/06 03:14:27;;;;;;;1.25;0.75;;;16.40;99.90;;;;;;5015148;28;20612;-87
2021/08/06 03:16:52;;;;;;;2.58;0.85;;;16.40;99.90;;;;;;5033097;28;20461;-87
2021/08/06 03:19:18;;;;;;;3.13;1.00;;;16.40;99.90;;;;;;5015083;28;20040;-87
2021/08/06 03:21:44;;;;;;;3.35;0.88;;;16.50;99.90;;;;;;5015465;28;20030;-87
2021/08/06 03:24:09;;;;;;;3.20;0.93;;;16.50;99.90;;;;;;5015263;28;20032;-87
2021/08/06 03:26:35;;;;;;;6.88;1.13;;;16.30;99.90;;;;;;5015716;28;20022;-87
2021/08/06 03:29:01;;;;;;;1.42;0.68;;;16.30;99.90;;;;;;5018488;28;20140;-87
2021/08/06 03:31:26;;;;;;;2.65;0.90;;;16.30;99.90;;;;;;5018636;28;20083;-87
2021/08/06 03:33:52;;;;;;;2.92;0.90;;;16.20;99.90;;;;;;5018510;28;20444;-87
2021/08/06 03:36:18;;;;;;;1.40;0.82;;;16.20;99.90;;;;;;5036399;28;20025;-87
2021/08/06 03:38:43;;;;;;;3.55;1.05;;;16.20;99.90;;;;;;5018408;28;20495;-87
2021/08/06 03:41:09;;;;;;;4.20;1.10;;;16.10;99.90;;;;;;5036407;28;20038;-88
2021/08/06 03:43:35;;;;;;;6.82;0.95;;;16.20;99.90;;;;;;5036360;28;20033;-88
2021/08/06 03:46:02;;;;;;;3.65;0.95;;;16.30;99.90;;;;;;5036248;28;20050;-87
2021/08/06 03:48:28;;;;;;;0.88;0.70;;;16.30;99.90;;;;;;5018275;28;20029;-87
2021/08/06 03:50:54;;;;;;;1.13;1.00;;;16.40;99.90;;;;;;5018211;28;20029;-87
2021/08/06 03:53:19;;;;;;;4.60;1.20;;;16.40;99.90;;;;;;5018065;28;20064;-87
2021/08/06 03:55:45;;;;;;;1.92;1.17;;;16.30;99.90;;;;;;5018753;28;20104;-87
2021/08/06 03:58:11;;;;;;;2.88;1.40;;;16.30;99.90;;;;;;5018018;28;20017;-87
2021/08/06 04:00:38;;;;;;;1.77;1.20;;;16.30;99.90;;;;;;5017950;28;20397;-88
2021/08/06 04:03:05;;;;;;;2.25;1.02;;;16.20;99.90;;;;;;5018356;28;20432;-87
2021/08/06 04:05:32;;;;;;;3.05;0.90;;;16.20;99.90;;;;;;5017905;28;20079;-88
2021/08/06 04:07:58;;;;;;;6.53;1.38;;;16.20;99.90;;;;;;5017896;28;20030;-87
2021/08/06 04:10:24;;;;;;;4.13;1.30;;;15.90;99.90;;;;;;5017697;28;20030;-87
2021/08/06 04:12:51;;;;;;;4.28;1.25;;;15.90;99.90;;;;;;5035459;28;20075;-87
2021/08/06 04:15:17;;;;;;;1.50;1.05;;;15.80;99.90;;;;;;5017787;28;20072;-87
2021/08/06 04:17:43;;;;;;;9.88;1.35;;;16.00;99.90;;;;;;5035572;28;20115;-87
2021/08/06 04:20:10;;;;;;;5.20;1.27;;;16.00;99.90;;;;;;5017665;28;20109;-87
2021/08/06 04:22:36;;;;;;;3.70;1.17;;;16.10;99.90;;;;;;5017594;28;20029;-87
2021/08/06 04:25:02;;;;;;;3.85;1.20;;;16.10;99.90;;;;;;5017612;28;20044;-86
2021/08/06 04:27:28;;;;;;;4.15;1.23;;;16.10;99.90;;;;;;5017492;28;20040;-86
2021/08/06 04:29:54;;;;;;;4.30;1.63;;;15.80;99.90;;;;;;5017584;28;20025;-87
2021/08/06 04:32:19;;;;;;;3.08;1.40;;;15.80;99.90;;;;;;5035190;28;20064;-86
2021/08/06 04:34:45;;;;;;;3.00;1.65;;;15.40;99.90;;;;;;5017363;28;20389;-85
2021/08/06 04:37:12;;;;;;;5.53;1.50;;;15.40;99.90;;;;;;5017301;28;20071;-84
2021/08/06 04:39:37;;;;;;;4.70;1.20;;;15.30;99.90;;;;;;5033865;28;20492;-85
2021/08/06 04:42:03;;;;;;;1.67;1.20;;;15.30;99.90;;;;;;5017318;28;20079;-85
2021/08/06 04:44:31;;;;;;;4.82;1.38;;;15.40;99.90;;;;;;5017320;28;20464;-84
2021/08/06 04:46:56;;;;;;;1.65;1.30;;;15.30;99.90;;;;;;5034929;28;20104;-86
2021/08/06 04:49:22;;;;;;;2.40;1.27;;;15.20;99.90;;;;;;5017150;28;20464;-85
2021/08/06 04:51:48;;;;;;;3.50;1.33;;;15.40;99.90;;;;;;5017023;28;20049;-86
2021/08/06 04:54:13;;;;;;;4.25;1.50;;;15.50;99.90;;;;;;5017035;28;20017;-84
2021/08/06 04:56:40;;;;;;;3.30;1.80;;;15.30;99.90;;;;;;5017055;28;20021;-86
2021/08/06 04:59:05;;;;;;;4.38;1.58;;;15.20;99.90;;;;;;5016981;28;20022;-87
2021/08/06 05:01:31;;;;;;;3.25;1.58;;;15.20;99.90;;;;;;5016918;28;20021;-86
2021/08/06 05:03:57;;;;;;;5.53;1.70;;;15.20;99.90;;;;;;5034619;28;20493;-87
2021/08/06 05:06:23;;;;;;;2.83;1.75;;;15.30;99.90;;;;;;5016848;28;20082;-87
2021/08/06 05:08:49;;;;;;;4.13;1.73;;;15.10;99.90;;;;;;5016842;28;20022;-87
2021/08/06 05:11:18;;;;;;;3.65;1.38;;;15.20;99.90;;;;;;5016944;28;20032;-88
2021/08/06 05:13:43;;;;;;;2.40;1.67;;;15.10;99.90;;;;;;5016832;28;20496;-87
2021/08/06 05:16:09;;;;;;;2.35;1.60;;;15.20;99.90;;;;;;5019049;28;20022;-88
2021/08/06 05:18:36;;;;;;;3.47;1.50;;;15.40;99.90;;;;;;5030560;28;20048;-88
2021/08/06 05:21:02;;;;;;;2.75;1.58;;;15.10;99.90;;;;;;5041171;28;20076;-89
2021/08/06 05:23:27;;;;;;;3.55;1.33;;;15.30;99.90;;;;;;5017297;28;20033;-88
2021/08/06 05:25:53;;;;;;;3.45;1.70;;;15.40;99.90;;;;;;5017257;28;20116;-88
2021/08/06 05:28:19;;;;;;;2.53;1.60;;;15.10;99.90;;;;;;5034473;28;20469;-87
2021/08/06 05:30:44;;;;;;;5.63;1.70;;;15.30;99.90;;;;;;5016620;28;20116;-88
2021/08/06 05:33:10;;;;;;;3.17;1.33;;;15.30;99.90;;;;;;5016423;28;20025;-89
2021/08/06 05:35:37;;;;;;;5.25;1.35;;;15.30;99.90;;;;;;5017666;28;20037;-90
2021/08/06 05:38:03;;;;;;;3.25;1.70;;;15.40;99.90;;;;;;5016426;28;20029;-88
2021/08/06 05:40:28;;;;;;;5.07;1.90;;;15.20;99.90;;;;;;5031996;28;20052;-88
2021/08/06 05:42:56;;;;;;;3.20;1.30;;;15.30;99.90;;;;;;5053923;28;20032;-90
2021/08/06 05:45:22;;;;;;;2.55;1.63;;;15.40;99.90;;;;;;5036302;28;20078;-88
2021/08/06 05:47:51;;;;;;;4.93;2.08;;;15.30;99.90;;;;;;5035857;28;20056;-87
2021/08/06 05:50:18;;;;;;;5.03;1.73;;;15.40;99.90;;;;;;5035465;28;20083;-87
2021/08/06 05:52:44;;;;;;;2.60;1.50;;;15.30;99.90;;;;;;5035749;28;20064;-87
2021/08/06 05:55:10;;;;;;;2.78;1.30;;;15.30;99.90;;;;;;5035784;28;20045;-87
2021/08/06 05:57:37;;;;;;;4.85;1.50;;;15.40;99.90;;;;;;5035731;28;20029;-87
2021/08/06 06:00:04;;;;;;;3.08;1.60;;;15.50;99.90;;;;;;5035632;28;20422;-87
2021/08/06 06:02:30;;;;;;;3.55;1.65;;;15.70;99.90;;;;;;5035647;28;20366;-87
2021/08/06 06:04:56;;;;;;;8.52;1.70;;;15.70;99.90;;;;;;5035599;28;20078;-87
2021/08/06 06:07:22;;;;;;;2.17;1.50;;;15.80;99.90;;;;;;5035891;28;20389;-87
2021/08/06 06:09:47;;;;;;;4.65;1.63;;;15.80;99.90;;;;;;5052183;28;20025;-87
2021/08/06 06:12:13;;;;;;;4.18;1.45;;;15.90;99.90;;;;;;5053372;28;20100;-88
2021/08/06 06:14:39;;;;;;;5.07;1.50;;;15.90;99.90;;;;;;5035481;28;20021;-87
2021/08/06 06:17:04;;;;;;;3.50;1.27;;;16.00;99.90;;;;;;5035576;28;20108;-87
2021/08/06 06:19:30;;;;;;;4.13;1.50;;;16.00;99.90;;;;;;5035421;28;20468;-88
2021/08/06 06:21:56;;;;;;;4.75;1.73;;;16.00;99.90;;;;;;5035520;28;20049;-89
2021/08/06 06:24:21;;;;;;;6.10;1.40;;;15.90;99.90;;;;;;5053272;28;20425;-87
2021/08/06 06:26:47;;;;;;;4.20;1.77;;;16.10;99.90;;;;;;5035464;28;20025;-89
2021/08/06 06:29:13;;;;;;;5.32;1.55;;;16.10;99.90;;;;;;5035440;28;20037;-87
2021/08/06 06:31:38;;;;;;;10.38;1.45;;;15.80;99.90;;;;;;5035369;28;20071;-89
2021/08/06 06:34:04;;;;;;;5.78;1.40;;;15.70;99.90;;;;;;5053492;28;20028;-87
2021/08/06 06:36:30;;;;;;;5.88;1.48;;;15.70;99.90;;;;;;5053027;28;20472;-86
2021/08/06 06:38:56;;;;;;;5.43;1.50;;;15.90;99.90;;;;;;5032016;28;20072;-86
2021/08/06 06:41:21;;;;;;;1.90;1.40;;;15.90;99.90;;;;;;5016228;28;20553;-87
2021/08/06 06:43:47;;;;;;;6.78;1.90;;;16.00;99.90;;;;;;5015510;28;20036;-86
2021/08/06 06:46:13;;;;;;;4.75;1.42;;;16.20;99.90;;;;;;5015428;28;20131;-87
2021/08/06 06:48:38;;;;;;;3.03;1.40;;;16.30;99.90;;;;;;5033036;28;20030;-86
2021/08/06 06:51:04;;;;;;;4.82;1.52;;;16.50;99.90;;;;;;5015289;28;20540;-88
2021/08/06 06:53:30;;;;;;;3.20;1.60;;;16.60;99.90;;;;;;5015298;28;20037;-86
2021/08/06 06:55:56;;;;;;;3.03;1.85;;;16.80;99.90;;;;;;5015365;28;20024;-87
2021/08/06 06:58:25;;;;;;;4.78;1.55;;;17.00;99.90;;;;;;5015299;28;20506;-87
2021/08/06 07:00:50;;;;;;;4.28;1.27;;;17.00;99.90;;;;;;5015291;28;20029;-87
2021/08/06 07:03:16;;;;;;;4.65;1.52;;;17.10;99.90;;;;;;5018680;28;20026;-88
2021/08/06 07:05:42;;;;;;;2.80;1.10;;;17.10;99.90;;;;;;5019223;28;20025;-86
2021/08/06 07:08:08;;;;;;;7.80;1.27;;;17.20;99.90;;;;;;5037556;28;20036;-87
2021/08/06 07:10:33;;;;;;;3.33;1.00;;;17.20;99.90;;;;;;5002670;28;20029;-88
2021/08/06 07:12:59;;;;;;;3.50;1.35;;;17.40;99.90;;;;;;5018833;28;20095;-87
2021/08/06 07:15:25;;;;;;;3.03;1.05;;;17.40;99.90;;;;;;5018914;28;20048;-86
2021/08/06 07:17:51;;;;;;;5.88;1.40;;;17.50;99.90;;;;;;5018801;28;20021;-87
2021/08/06 07:20:19;;;;;;;2.80;1.20;;;17.30;99.90;;;;;;5019060;28;20420;-87
2021/08/06 07:22:45;;;;;;;3.33;1.20;;;17.20;99.90;;;;;;5036472;28;20426;-87
2021/08/06 07:25:13;;;;;;;3.88;1.10;;;17.20;99.90;;;;;;5018727;28;20068;-87
2021/08/06 07:27:41;;;;;;;5.30;1.40;;;17.20;99.90;;;;;;5018964;28;20076;-86
2021/08/06 07:30:08;;;;;;;1.65;0.93;;;17.30;99.90;;;;;;5020251;28;20032;-87
2021/08/06 07:32:34;;;;;;;2.00;0.90;;;17.30;99.90;;;;;;5019334;28;20028;-90
2021/08/06 07:35:00;;;;;;;3.65;1.00;;;17.30;99.90;;;;;;5018773;28;20052;-86
2021/08/06 07:37:26;;;;;;;4.30;1.10;;;17.40;99.90;;;;;;5018587;28;20140;-86
2021/08/06 07:39:54;;;;;;;3.92;1.15;;;17.40;99.90;;;;;;5028993;28;20041;-87
2021/08/06 07:42:20;;;;;;;2.30;0.90;;;17.50;99.90;;;;;;5056059;28;20025;-87
2021/08/06 07:44:46;;;;;;;1.73;1.00;;;17.60;99.90;;;;;;5055988;28;20043;-86
2021/08/06 07:47:12;;;;;;;1.40;0.80;;;17.70;99.90;;;;;;5055842;28;20028;-87
2021/08/06 07:49:40;;;;;;;4.43;1.10;;;17.70;99.90;;;;;;5038040;28;20029;-86
2021/08/06 07:52:16;;;;;;;1.38;0.70;;;17.80;99.90;;;;;;5037947;28;20041;-86
2021/08/06 07:54:42;;;;;;;0.95;0.60;;;17.70;99.90;;;;;;5037941;28;20522;-86
2021/08/06 07:57:09;;;;;;;0.93;0.70;;;17.60;99.90;;;;;;5054559;28;20033;-86
2021/08/06 07:59:34;;;;;;;1.98;0.60;;;17.70;99.90;;;;;;5037867;28;20025;-86
2021/08/06 08:02:00;;;;;;;1.52;0.60;;;17.80;99.90;;;;;;5038110;28;20132;-85
2021/08/06 08:04:26;;;;;;;1.02;0.60;;;17.80;99.90;;;;;;5037891;28;20032;-87
2021/08/06 08:06:52;;;;;;;1.23;0.40;;;17.90;99.90;;;;;;5055652;28;20025;-87
2021/08/06 08:09:17;;;;;;;0.90;0.50;;;18.00;99.90;;;;;;5037636;28;20075;-86
2021/08/06 08:11:44;;;;;;;1.42;0.47;;;18.00;99.90;;;;;;5037662;28;20025;-87
2021/08/06 08:14:09;;;;;;;0.85;0.50;;;18.10;99.90;;;;;;5037341;28;20029;-86
2021/08/06 08:16:35;;;;;;;0.70;0.40;;;18.10;99.90;;;;;;5037590;28;20033;-86
2021/08/06 08:19:01;;;;;;;1.35;0.45;;;18.00;99.90;;;;;;5037519;28;20017;-88
2021/08/06 08:21:26;;;;;;;0.73;0.40;;;18.00;99.90;;;;;;5037475;28;20029;-86
2021/08/06 08:23:52;;;;;;;1.08;0.40;;;18.00;99.90;;;;;;5055274;28;20090;-87
2021/08/06 08:26:20;;;;;;;1.35;0.52;;;18.00;99.90;;;;;;5037370;28;20029;-87
2021/08/06 08:28:46;;;;;;;0.60;0.38;;;18.10;99.90;;;;;;5055215;28;20515;-87
2021/08/06 08:31:12;;;;;;;2.17;0.47;;;18.10;99.90;;;;;;5055159;28;20025;-87
2021/08/06 08:33:38;;;;;;;2.08;0.50;;;18.20;99.90;;;;;;5037140;28;20036;-87
2021/08/06 08:36:04;;;;;;;1.65;0.50;;;18.20;99.90;;;;;;5055079;28;20024;-86
2021/08/06 08:38:31;;;;;;;2.20;0.47;;;18.30;99.90;;;;;;5037166;28;20082;-87
2021/08/06 08:40:58;;;;;;;1.02;0.40;;;18.60;99.90;;;;;;5037002;28;20488;-87
2021/08/06 08:43:25;;;;;;;0.60;0.40;;;18.70;99.90;;;;;;5037675;28;20025;-88
2021/08/06 08:45:54;;;;;;;2.15;0.60;;;18.80;99.90;;;;;;5037363;28;20021;-88
2021/08/06 08:48:20;;;;;;;2.40;0.60;;;18.80;99.90;;;;;;5037223;28;20065;-89
2021/08/06 08:50:46;;;;;;;5.07;0.85;;;19.10;99.90;;;;;;5037122;28;20036;-89
2021/08/06 08:53:12;;;;;;;1.80;0.60;;;19.10;99.90;;;;;;5037037;28;20029;-86
2021/08/06 08:55:38;;;;;;;4.60;0.77;;;19.00;99.90;;;;;;5037102;28;20112;-86
2021/08/06 08:58:05;;;;;;;2.58;0.80;;;19.20;99.90;;;;;;5036735;28;20021;-85
2021/08/06 09:00:31;;;;;;;2.05;0.68;;;19.40;99.90;;;;;;5036745;28;20070;-87
2021/08/06 09:02:56;;;;;;;3.38;0.38;;;19.70;99.90;;;;;;5037333;28;20025;-87
2021/08/06 09:05:28;;;;;;;4.03;0.50;;;19.80;99.90;;;;;;5037343;28;20025;-87
2021/08/06 09:07:54;;;;;;;1.08;0.50;;;19.70;99.90;;;;;;5037583;28;20025;-88
2021/08/06 09:10:25;;;;;;;2.65;0.68;;;19.80;99.90;;;;;;5036703;28;20028;-87
2021/08/06 09:13:01;;;;;;;1.67;0.70;;;20.10;99.90;;;;;;5036599;28;20476;-86
2021/08/06 09:16:00;;;;;;;2.58;0.68;;;20.40;99.90;;;;;;5036611;28;20028;-86
2021/08/06 09:18:30;;;;;;;1.83;0.65;;;20.30;99.90;;;;;;4993863;28;20029;-86
2021/08/06 09:21:06;;;;;;;1.95;0.50;;;20.10;99.90;;;;;;5036344;28;20017;-87
2021/08/06 09:23:44;;;;;;;2.58;0.70;;;20.00;99.90;;;;;;5036308;28;20119;-87
2021/08/06 09:26:32;;;;;;;3.15;0.80;;;19.90;99.90;;;;;;5035894;28;20031;-88
2021/08/06 09:29:04;;;;;;;2.97;0.70;;;19.80;99.90;;;;;;5036379;28;20513;-86
2021/08/06 09:31:31;;;;;;;1.70;0.70;;;19.50;99.90;;;;;;5038187;28;20028;-87
2021/08/06 09:34:13;;;;;;;1.35;0.57;;;19.20;99.90;;;;;;5054064;28;20035;-86
2021/08/06 09:37:03;;;;;;;5.32;0.65;;;19.20;99.90;;;;;;5038604;28;20477;-88
2021/08/06 09:39:38;;;;;;;3.15;1.10;;;19.60;99.90;;;;;;5039272;28;20049;-88
2021/08/06 09:42:13;;;;;;;3.28;0.90;;;20.00;99.90;;;;;;5036602;28;20086;-87
2021/08/06 09:44:38;;;;;;;3.03;0.65;;;20.60;99.90;;;;;;5054132;28;20021;-88
2021/08/06 09:47:20;;;;;;;4.85;0.73;;;21.10;99.90;;;;;;5036312;28;20037;-87
2021/08/06 09:49:48;;;;;;;0.85;0.45;;;20.90;99.90;;;;;;5036338;28;20025;-87
2021/08/06 09:52:14;;;;;;;4.05;0.85;;;21.10;99.90;;;;;;5036273;28;20025;-88
2021/08/06 09:54:40;;;;;;;2.08;0.73;;;20.90;99.90;;;;;;5036804;28;20456;-89
2021/08/06 09:57:09;;;;;;;1.63;0.70;;;20.60;99.90;;;;;;5035897;28;20078;-91
2021/08/06 09:59:36;;;;;;;1.83;0.75;;;20.60;99.90;;;;;;5035840;28;20025;-87
2021/08/06 10:02:18;;;;;;;2.63;0.80;;;20.30;99.90;;;;;;5035660;28;20021;-86
2021/08/06 10:04:58;;;;;;;2.03;0.80;;;20.20;99.90;;;;;;5035764;28;20049;-87
2021/08/06 10:07:28;;;;;;;1.63;0.70;;;19.80;99.90;;;;;;5035764;28;20033;-90
2021/08/06 10:09:54;;;;;;;1.55;0.57;;;20.00;99.90;;;;;;5035700;28;20021;-86
2021/08/06 10:12:21;;;;;;;2.25;0.55;;;20.10;99.90;;;;;;5035548;28;20025;-86
2021/08/06 10:14:46;;;;;;;1.73;0.70;;;20.10;99.90;;;;;;5035494;28;20056;-86
2021/08/06 10:17:13;;;;;;;3.50;0.80;;;20.10;99.90;;;;;;5053453;28;20024;-90
2021/08/06 10:19:39;;;;;;;2.88;0.73;;;19.90;99.90;;;;;;5035574;28;20028;-88
2021/08/06 10:22:06;;;;;;;4.60;0.65;;;19.40;99.90;;;;;;5035830;28;20109;-87
2021/08/06 10:24:34;;;;;;;1.73;0.80;;;19.30;99.90;;;;;;5035373;28;20021;-86
2021/08/06 10:27:00;;;;;;;2.83;0.77;;;19.20;99.90;;;;;;5035353;28;20025;-87
2021/08/06 10:29:27;;;;;;;4.85;0.80;;;19.10;99.90;;;;;;5035694;28;20396;-87
2021/08/06 10:32:15;;;;;;;4.90;0.63;;;18.90;99.90;;;;;;5035313;28;20033;-88
2021/08/06 10:35:05;;;;;;;1.10;0.63;;;18.90;99.90;;;;;;5035421;28;20021;-88
2021/08/06 10:37:54;;;;;;;1.80;0.60;;;18.90;99.90;;;;;;5037837;28;20052;-88
2021/08/06 10:40:32;;;;;;;3.38;0.70;;;18.80;99.90;;;;;;5042384;28;20052;-87
2021/08/06 10:43:10;;;;;;;2.90;0.57;;;18.70;99.90;;;;;;5020095;28;20493;-87
2021/08/06 10:45:45;;;;;;;1.30;0.60;;;18.70;99.90;;;;;;5020484;28;20021;-86
2021/08/06 10:48:29;;;;;;;1.58;0.63;;;19.40;99.90;;;;;;5037413;28;20037;-90
2021/08/06 10:51:20;;;;;;;4.13;0.82;;;19.70;99.90;;;;;;5019363;28;20036;-91
2021/08/06 10:53:55;;;;;;;2.10;0.50;;;20.10;99.90;;;;;;5019482;28;20025;-92
2021/08/06 10:56:28;;;;;;;3.10;0.50;;;20.30;99.90;;;;;;5019471;28;20090;-88
2021/08/06 10:59:02;;;;;;;1.13;0.50;;;21.10;99.90;;;;;;5019436;28;20029;-88
2021/08/06 11:01:31;;;;;;;4.45;0.70;;;21.40;99.90;;;;;;5036432;28;20032;-88
2021/08/06 11:04:17;;;;;;;2.63;0.50;;;21.40;99.90;;;;;;5019503;28;20080;-90
2021/08/06 11:06:49;;;;;;;2.03;0.70;;;22.30;99.90;;;;;;5019326;28;20370;-89
2021/08/06 11:09:29;;;;;;;2.80;0.52;;;22.40;99.90;;;;;;5019917;28;20025;-89
2021/08/06 11:12:28;;;;;;;7.78;0.88;;;21.80;99.90;;;;;;5020058;28;20473;-91
2021/08/06 11:14:54;;;;;;;4.28;0.77;;;21.90;99.90;;;;;;5019122;28;20026;-89
2021/08/06 11:17:34;;;;;;;2.95;0.70;;;21.20;99.90;;;;;;5019484;28;20086;-90
2021/08/06 11:20:17;;;;;;;1.85;0.60;;;20.80;99.90;;;;;;5018995;28;20025;-88
2021/08/06 11:22:49;;;;;;;2.40;0.70;;;20.50;99.90;;;;;;5018930;28;20075;-88
2021/08/06 11:25:24;;;;;;;4.05;0.65;;;20.20;99.90;;;;;;5019373;28;20546;-86
2021/08/06 11:27:59;;;;;;;1.77;0.60;;;20.00;99.90;;;;;;5038726;28;20354;-88
2021/08/06 11:30:33;;;;;;;1.67;0.60;;;20.20;99.90;;;;;;5036519;28;20028;-87
2021/08/06 11:33:02;;;;;;;;;;;21.40;99.90;;;;;;5019077;28;20064;-88
2021/08/06 11:35:35;;;;;;;4.43;0.80;;;21.40;99.90;;;;;;5018809;28;19970;-86
2021/08/06 11:38:10;;;;;;;5.47;0.75;;;21.00;99.90;;;;;;5018569;28;20084;-88
2021/08/06 11:40:38;;;;;;;1.88;0.70;;;21.30;99.90;;;;;;5035021;28;20049;-85
2021/08/06 11:43:14;;;;;;;1.98;0.70;;;21.60;99.90;;;;;;5038965;28;20036;-85
2021/08/06 11:45:45;;;;;;;3.70;0.50;;;21.40;99.90;;;;;;5038798;28;20124;-87
2021/08/06 11:48:11;;;;;;;2.33;0.82;;;22.40;99.90;;;;;;5056708;28;20017;-88
2021/08/06 11:50:39;;;;;;;2.55;0.60;;;23.40;99.90;;;;;;5058981;28;20036;-86
2021/08/06 11:53:25;;;;;;;2.33;0.82;;;23.90;99.90;;;;;;5039500;28;20072;-87
2021/08/06 11:55:53;;;;;;;4.97;0.60;;;24.10;99.90;;;;;;5039447;28;20021;-94
2021/08/06 11:58:29;;;;;;;2.50;0.63;;;23.90;99.90;;;;;;5038247;28;20036;-88
2021/08/06 12:00:54;;;;;;;2.80;0.40;;;24.20;99.90;;;;;;5038086;28;20495;-86
2021/08/06 12:03:20;;;;;;;2.28;0.88;;;;;;;;;;5056185;28;20033;-88
2021/08/06 12:05:51;;;;;;;1.75;0.70;;;25.10;99.90;;;;;;5056043;28;20033;-87
2021/08/06 12:08:26;;;;;;;4.47;0.60;;;25.60;99.90;;;;;;5037888;28;20056;-87
2021/08/06 12:11:05;;;;;;;1.27;0.43;;;26.10;99.90;;;;;;5038111;28;20025;-89
2021/08/06 12:13:36;;;;;;;1.17;0.50;;;25.90;99.90;;;;;;5055625;28;20086;-86
2021/08/06 12:16:05;;;;;;;2.42;0.60;;;26.10;99.90;;;;;;5037940;28;20029;-88
2021/08/06 12:18:31;;;;;;;2.97;0.70;;;25.20;99.90;;;;;;5055647;28;20396;-87
2021/08/06 12:21:09;;;;;;;2.80;0.80;;;24.60;99.90;;;;;;5037682;28;20017;-89
2021/08/06 12:23:36;;;;;;;2.53;0.63;;;24.80;99.90;;;;;;5037725;28;20036;-87
2021/08/06 12:26:20;;;;;;;2.00;0.60;;;25.70;99.90;;;;;;5037408;28;20029;-88
2021/08/06 12:28:51;;;;;;;1.27;0.55;;;26.00;99.90;;;;;;5037681;28;20032;-87
2021/08/06 12:31:23;;;;;;;3.03;0.55;;;26.20;99.90;;;;;;5037446;28;20548;-88
2021/08/06 12:34:11;;;;;;;3.80;0.70;;;25.20;99.90;;;;;;5037509;28;20056;-87
2021/08/06 12:36:40;;;;;;;2.03;0.70;;;24.20;99.90;;;;;;5037104;28;20025;-87
2021/08/06 12:39:10;;;;;;;1.10;0.55;;;24.20;99.90;;;;;;5050591;28;20096;-86
2021/08/06 12:41:37;;;;;;;2.78;0.60;;;23.60;99.90;;;;;;5035505;28;20381;-90
2021/08/06 12:44:19;;;;;;;3.17;0.70;;;23.10;99.90;;;;;;5035245;28;20021;-92
2021/08/06 12:46:59;;;;;;;1.58;0.40;;;22.50;99.90;;;;;;5017367;28;20029;-87
2021/08/06 12:49:41;;;;;;;1.42;0.50;;;22.40;99.90;;;;;;5017295;28;20599;-88
2021/08/06 12:52:25;;;;;;;4.70;0.75;;;24.20;99.90;;;;;;5014408;28;20599;-89
2021/08/06 12:54:59;;;;;;;2.10;0.60;;;25.50;99.90;;;;;;5017149;28;20025;-87
2021/08/06 12:57:48;;;;;;;1.70;0.60;;;26.30;99.90;;;;;;5017201;28;20386;-86